Caledonia, New York
Current Conditions -  °F | °C
As of 5:54 AM on Friday 24 Oct 2014 (Local Time) from KROC Reporting Station
Overcast Overcast  
Wind Chill: 50°   Ceiling: 15000
Heat Index: 50°   Visibility: 10mi
Dew Point: 43°   Wind: 10mph
Humidity: 77%   Direction: 290°WNW
Pressure: 29.99"   Gusts: NA
Location:  42.97°N, 77.85°W
Report Text: KROC 240954Z 29009KT 10SM SCT045 OVC150 10/06 A2999 RMK AO2 SLP159 BINOVC T01000061
Loading
Personal Weather Stations






























Interactive Weather Map
Tropical Storm Tracking
New forecast layout! Learn more

10-Day Weather Forecast

Advertisements
Track Severe Weather on mobile